<?xml version="1.0" encoding="utf-8"?>
<gpx xmlns:xsi="http://www.w3.org/2001/XMLSchema-instance" xmlns:xsd="http://www.w3.org/2001/XMLSchema" version="1.1" creator="Shapelink.com" xmlns="http://www.topografix.com/GPX/1/1" xmlns:gpxtpx="http://www.garmin.com/xmlschemas/TrackPointExtension/v1">
  <metadata>
    <name>Sykling 3.84 km, 2014-06-12</name>
    <desc></desc>
    <author><name>Carl Grundberg</name></author> 
    <time>2014-06-12T16:10:34Z</time>
  </metadata>
  <trk>
    <name>Sykling 3.84 km, 2014-06-12</name>
    <trkseg>
      <trkpt lat="56.3465102" lon="13.6857266">
        <ele>121.264</ele>
        <time>2014-06-12T16:10:34Z</time>
      </trkpt>
      <trkpt lat="56.3464973" lon="13.6857678">
        <ele>120.302</ele>
        <time>2014-06-12T16:10:39Z</time>
      </trkpt>
      <trkpt lat="56.3464718" lon="13.685764">
        <ele>119.821</ele>
        <time>2014-06-12T16:10:45Z</time>
      </trkpt>
      <trkpt lat="56.3464397" lon="13.6857512">
        <ele>119.341</ele>
        <time>2014-06-12T16:10:49Z</time>
      </trkpt>
      <trkpt lat="56.3463641" lon="13.6857107">
        <ele>116.938</ele>
        <time>2014-06-12T16:10:54Z</time>
      </trkpt>
      <trkpt lat="56.3462361" lon="13.6856645">
        <ele>115.496</ele>
        <time>2014-06-12T16:11:00Z</time>
      </trkpt>
      <trkpt lat="56.3462107" lon="13.685648">
        <ele>115.976</ele>
        <time>2014-06-12T16:11:01Z</time>
      </trkpt>
      <trkpt lat="56.3460154" lon="13.6855334">
        <ele>113.573</ele>
        <time>2014-06-12T16:11:07Z</time>
      </trkpt>
      <trkpt lat="56.3458791" lon="13.6853634">
        <ele>113.573</ele>
        <time>2014-06-12T16:11:11Z</time>
      </trkpt>
      <trkpt lat="56.345805" lon="13.6852595">
        <ele>113.573</ele>
        <time>2014-06-12T16:11:13Z</time>
      </trkpt>
      <trkpt lat="56.3457045" lon="13.6850821">
        <ele>114.054</ele>
        <time>2014-06-12T16:11:16Z</time>
      </trkpt>
      <trkpt lat="56.3456118" lon="13.6848797">
        <ele>114.054</ele>
        <time>2014-06-12T16:11:20Z</time>
      </trkpt>
      <trkpt lat="56.3454648" lon="13.6844556">
        <ele>114.054</ele>
        <time>2014-06-12T16:11:27Z</time>
      </trkpt>
      <trkpt lat="56.3453819" lon="13.6841826">
        <ele>115.015</ele>
        <time>2014-06-12T16:11:31Z</time>
      </trkpt>
      <trkpt lat="56.3452805" lon="13.6839339">
        <ele>115.015</ele>
        <time>2014-06-12T16:11:35Z</time>
      </trkpt>
      <trkpt lat="56.3450484" lon="13.6835367">
        <ele>115.976</ele>
        <time>2014-06-12T16:11:42Z</time>
      </trkpt>
      <trkpt lat="56.3449106" lon="13.6832996">
        <ele>117.418</ele>
        <time>2014-06-12T16:11:47Z</time>
      </trkpt>
      <trkpt lat="56.344764" lon="13.6830895">
        <ele>118.86</ele>
        <time>2014-06-12T16:11:54Z</time>
      </trkpt>
      <trkpt lat="56.3446065" lon="13.6829487">
        <ele>117.899</ele>
        <time>2014-06-12T16:11:59Z</time>
      </trkpt>
      <trkpt lat="56.3443348" lon="13.6829062">
        <ele>117.899</ele>
        <time>2014-06-12T16:12:05Z</time>
      </trkpt>
      <trkpt lat="56.3439969" lon="13.6829326">
        <ele>116.938</ele>
        <time>2014-06-12T16:12:13Z</time>
      </trkpt>
      <trkpt lat="56.3437107" lon="13.6828627">
        <ele>117.418</ele>
        <time>2014-06-12T16:12:21Z</time>
      </trkpt>
      <trkpt lat="56.3435062" lon="13.682714">
        <ele>116.938</ele>
        <time>2014-06-12T16:12:26Z</time>
      </trkpt>
      <trkpt lat="56.3434656" lon="13.6826637">
        <ele>116.457</ele>
        <time>2014-06-12T16:12:27Z</time>
      </trkpt>
      <trkpt lat="56.3433484" lon="13.6823068">
        <ele>115.015</ele>
        <time>2014-06-12T16:12:31Z</time>
      </trkpt>
      <trkpt lat="56.3432479" lon="13.6818194">
        <ele>114.054</ele>
        <time>2014-06-12T16:12:35Z</time>
      </trkpt>
      <trkpt lat="56.3431505" lon="13.6814874">
        <ele>113.092</ele>
        <time>2014-06-12T16:12:38Z</time>
      </trkpt>
      <trkpt lat="56.3428535" lon="13.6807348">
        <ele>112.612</ele>
        <time>2014-06-12T16:12:45Z</time>
      </trkpt>
      <trkpt lat="56.342661" lon="13.6802667">
        <ele>113.092</ele>
        <time>2014-06-12T16:12:50Z</time>
      </trkpt>
      <trkpt lat="56.3424234" lon="13.6796825">
        <ele>113.573</ele>
        <time>2014-06-12T16:12:57Z</time>
      </trkpt>
      <trkpt lat="56.3421556" lon="13.679048">
        <ele>115.015</ele>
        <time>2014-06-12T16:13:05Z</time>
      </trkpt>
      <trkpt lat="56.3419683" lon="13.6786301">
        <ele>115.976</ele>
        <time>2014-06-12T16:13:11Z</time>
      </trkpt>
      <trkpt lat="56.3418806" lon="13.6784503">
        <ele>115.976</ele>
        <time>2014-06-12T16:13:14Z</time>
      </trkpt>
      <trkpt lat="56.3416445" lon="13.6781921">
        <ele>115.496</ele>
        <time>2014-06-12T16:13:20Z</time>
      </trkpt>
      <trkpt lat="56.3413114" lon="13.6780125">
        <ele>115.496</ele>
        <time>2014-06-12T16:13:27Z</time>
      </trkpt>
      <trkpt lat="56.3411223" lon="13.6779162">
        <ele>115.015</ele>
        <time>2014-06-12T16:13:31Z</time>
      </trkpt>
      <trkpt lat="56.3410295" lon="13.6778572">
        <ele>115.015</ele>
        <time>2014-06-12T16:13:33Z</time>
      </trkpt>
      <trkpt lat="56.3407292" lon="13.6775137">
        <ele>113.573</ele>
        <time>2014-06-12T16:13:40Z</time>
      </trkpt>
      <trkpt lat="56.3404489" lon="13.6770844">
        <ele>112.131</ele>
        <time>2014-06-12T16:13:47Z</time>
      </trkpt>
      <trkpt lat="56.3401408" lon="13.6767506">
        <ele>111.65</ele>
        <time>2014-06-12T16:13:54Z</time>
      </trkpt>
      <trkpt lat="56.3399238" lon="13.6765346">
        <ele>112.131</ele>
        <time>2014-06-12T16:13:59Z</time>
      </trkpt>
      <trkpt lat="56.3398512" lon="13.6764756">
        <ele>112.131</ele>
        <time>2014-06-12T16:14:01Z</time>
      </trkpt>
      <trkpt lat="56.3398143" lon="13.6764446">
        <ele>112.131</ele>
        <time>2014-06-12T16:14:02Z</time>
      </trkpt>
      <trkpt lat="56.3395191" lon="13.6762255">
        <ele>111.17</ele>
        <time>2014-06-12T16:14:09Z</time>
      </trkpt>
      <trkpt lat="56.3394738" lon="13.6761918">
        <ele>111.17</ele>
        <time>2014-06-12T16:14:10Z</time>
      </trkpt>
      <trkpt lat="56.3392165" lon="13.6759834">
        <ele>110.689</ele>
        <time>2014-06-12T16:14:16Z</time>
      </trkpt>
      <trkpt lat="56.3390436" lon="13.6758637">
        <ele>110.208</ele>
        <time>2014-06-12T16:14:20Z</time>
      </trkpt>
      <trkpt lat="56.3386969" lon="13.6755728">
        <ele>110.689</ele>
        <time>2014-06-12T16:14:28Z</time>
      </trkpt>
      <trkpt lat="56.338468" lon="13.6753789">
        <ele>111.65</ele>
        <time>2014-06-12T16:14:34Z</time>
      </trkpt>
      <trkpt lat="56.338343" lon="13.6752524">
        <ele>112.131</ele>
        <time>2014-06-12T16:14:37Z</time>
      </trkpt>
      <trkpt lat="56.338094" lon="13.6748744">
        <ele>112.612</ele>
        <time>2014-06-12T16:14:44Z</time>
      </trkpt>
      <trkpt lat="56.3379388" lon="13.6744212">
        <ele>113.573</ele>
        <time>2014-06-12T16:14:51Z</time>
      </trkpt>
      <trkpt lat="56.3379007" lon="13.6741387">
        <ele>114.534</ele>
        <time>2014-06-12T16:14:55Z</time>
      </trkpt>
      <trkpt lat="56.3378837" lon="13.6739064">
        <ele>115.015</ele>
        <time>2014-06-12T16:14:58Z</time>
      </trkpt>
      <trkpt lat="56.3379191" lon="13.6732608">
        <ele>114.054</ele>
        <time>2014-06-12T16:15:05Z</time>
      </trkpt>
      <trkpt lat="56.338007" lon="13.6726008">
        <ele>112.131</ele>
        <time>2014-06-12T16:15:12Z</time>
      </trkpt>
      <trkpt lat="56.3380361" lon="13.6723989">
        <ele>111.65</ele>
        <time>2014-06-12T16:15:14Z</time>
      </trkpt>
      <trkpt lat="56.3381081" lon="13.6720482">
        <ele>110.208</ele>
        <time>2014-06-12T16:15:18Z</time>
      </trkpt>
      <trkpt lat="56.3382386" lon="13.6713214">
        <ele>110.208</ele>
        <time>2014-06-12T16:15:26Z</time>
      </trkpt>
      <trkpt lat="56.33829" lon="13.6708914">
        <ele>110.689</ele>
        <time>2014-06-12T16:15:32Z</time>
      </trkpt>
      <trkpt lat="56.338294" lon="13.670824">
        <ele>110.689</ele>
        <time>2014-06-12T16:15:33Z</time>
      </trkpt>
      <trkpt lat="56.3382524" lon="13.6703792">
        <ele>109.728</ele>
        <time>2014-06-12T16:15:39Z</time>
      </trkpt>
      <trkpt lat="56.3381441" lon="13.6698555">
        <ele>111.17</ele>
        <time>2014-06-12T16:15:46Z</time>
      </trkpt>
      <trkpt lat="56.3380837" lon="13.6695457">
        <ele>112.131</ele>
        <time>2014-06-12T16:15:50Z</time>
      </trkpt>
      <trkpt lat="56.3380138" lon="13.6692634">
        <ele>111.65</ele>
        <time>2014-06-12T16:15:54Z</time>
      </trkpt>
      <trkpt lat="56.3379444" lon="13.6690681">
        <ele>110.689</ele>
        <time>2014-06-12T16:15:57Z</time>
      </trkpt>
      <trkpt lat="56.337805" lon="13.6686206">
        <ele>109.247</ele>
        <time>2014-06-12T16:16:04Z</time>
      </trkpt>
      <trkpt lat="56.3376385" lon="13.6681306">
        <ele>109.247</ele>
        <time>2014-06-12T16:16:11Z</time>
      </trkpt>
      <trkpt lat="56.3374577" lon="13.6676269">
        <ele>107.805</ele>
        <time>2014-06-12T16:16:17Z</time>
      </trkpt>
      <trkpt lat="56.3372459" lon="13.6670044">
        <ele>107.805</ele>
        <time>2014-06-12T16:16:24Z</time>
      </trkpt>
      <trkpt lat="56.3372217" lon="13.6669343">
        <ele>107.805</ele>
        <time>2014-06-12T16:16:25Z</time>
      </trkpt>
      <trkpt lat="56.3372179" lon="13.6666491">
        <ele>107.805</ele>
        <time>2014-06-12T16:16:29Z</time>
      </trkpt>
      <trkpt lat="56.3373311" lon="13.6660867">
        <ele>105.882</ele>
        <time>2014-06-12T16:16:36Z</time>
      </trkpt>
      <trkpt lat="56.3373792" lon="13.6658076">
        <ele>105.402</ele>
        <time>2014-06-12T16:16:39Z</time>
      </trkpt>
      <trkpt lat="56.33749" lon="13.6654975">
        <ele>103.96</ele>
        <time>2014-06-12T16:16:43Z</time>
      </trkpt>
      <trkpt lat="56.3375282" lon="13.6654332">
        <ele>103.96</ele>
        <time>2014-06-12T16:16:44Z</time>
      </trkpt>
      <trkpt lat="56.3378706" lon="13.6648486">
        <ele>102.518</ele>
        <time>2014-06-12T16:16:53Z</time>
      </trkpt>
      <trkpt lat="56.3379765" lon="13.6646914">
        <ele>102.518</ele>
        <time>2014-06-12T16:16:56Z</time>
      </trkpt>
      <trkpt lat="56.338041" lon="13.6646107">
        <ele>102.518</ele>
        <time>2014-06-12T16:16:58Z</time>
      </trkpt>
      <trkpt lat="56.3381485" lon="13.6644541">
        <ele>103.479</ele>
        <time>2014-06-12T16:17:02Z</time>
      </trkpt>
      <trkpt lat="56.3383189" lon="13.6643578">
        <ele>103.96</ele>
        <time>2014-06-12T16:17:08Z</time>
      </trkpt>
      <trkpt lat="56.3385487" lon="13.6642676">
        <ele>104.921</ele>
        <time>2014-06-12T16:17:15Z</time>
      </trkpt>
      <trkpt lat="56.3385846" lon="13.6642583">
        <ele>104.921</ele>
        <time>2014-06-12T16:17:16Z</time>
      </trkpt>
      <trkpt lat="56.338844" lon="13.6641515">
        <ele>105.882</ele>
        <time>2014-06-12T16:17:23Z</time>
      </trkpt>
      <trkpt lat="56.3390239" lon="13.6640952">
        <ele>105.882</ele>
        <time>2014-06-12T16:17:28Z</time>
      </trkpt>
      <trkpt lat="56.3390694" lon="13.6640905">
        <ele>106.363</ele>
        <time>2014-06-12T16:17:31Z</time>
      </trkpt>
      <trkpt lat="56.3390898" lon="13.6640778">
        <ele>107.324</ele>
        <time>2014-06-12T16:17:39Z</time>
      </trkpt>
      <trkpt lat="56.3391092" lon="13.6640227">
        <ele>108.286</ele>
        <time>2014-06-12T16:17:51Z</time>
      </trkpt>
      <trkpt lat="56.3391368" lon="13.6637712">
        <ele>107.805</ele>
        <time>2014-06-12T16:17:56Z</time>
      </trkpt>
      <trkpt lat="56.3391367" lon="13.6632166">
        <ele>106.363</ele>
        <time>2014-06-12T16:18:02Z</time>
      </trkpt>
      <trkpt lat="56.3390783" lon="13.6623741">
        <ele>104.44</ele>
        <time>2014-06-12T16:18:10Z</time>
      </trkpt>
      <trkpt lat="56.339028" lon="13.6616185">
        <ele>105.402</ele>
        <time>2014-06-12T16:18:17Z</time>
      </trkpt>
      <trkpt lat="56.3390217" lon="13.661519">
        <ele>105.402</ele>
        <time>2014-06-12T16:18:18Z</time>
      </trkpt>
      <trkpt lat="56.3390555" lon="13.6612103">
        <ele>106.844</ele>
        <time>2014-06-12T16:18:22Z</time>
      </trkpt>
      <trkpt lat="56.3390773" lon="13.661171">
        <ele>107.324</ele>
        <time>2014-06-12T16:18:23Z</time>
      </trkpt>
      <trkpt lat="56.3393" lon="13.6608161">
        <ele>108.286</ele>
        <time>2014-06-12T16:18:33Z</time>
      </trkpt>
      <trkpt lat="56.3394984" lon="13.6605782">
        <ele>107.805</ele>
        <time>2014-06-12T16:18:39Z</time>
      </trkpt>
      <trkpt lat="56.3397844" lon="13.6604254">
        <ele>106.844</ele>
        <time>2014-06-12T16:18:45Z</time>
      </trkpt>
      <trkpt lat="56.3400375" lon="13.6603409">
        <ele>106.363</ele>
        <time>2014-06-12T16:18:50Z</time>
      </trkpt>
      <trkpt lat="56.3404173" lon="13.6602049">
        <ele>105.402</ele>
        <time>2014-06-12T16:18:57Z</time>
      </trkpt>
      <trkpt lat="56.3408706" lon="13.6600257">
        <ele>103.479</ele>
        <time>2014-06-12T16:19:04Z</time>
      </trkpt>
      <trkpt lat="56.3412829" lon="13.6598726">
        <ele>102.037</ele>
        <time>2014-06-12T16:19:10Z</time>
      </trkpt>
      <trkpt lat="56.3416985" lon="13.6597025">
        <ele>100.595</ele>
        <time>2014-06-12T16:19:17Z</time>
      </trkpt>
      <trkpt lat="56.3420796" lon="13.6595341">
        <ele>101.076</ele>
        <time>2014-06-12T16:19:24Z</time>
      </trkpt>
      <trkpt lat="56.3424091" lon="13.6594191">
        <ele>101.556</ele>
        <time>2014-06-12T16:19:31Z</time>
      </trkpt>
      <trkpt lat="56.3426127" lon="13.6593726">
        <ele>103.479</ele>
        <time>2014-06-12T16:19:36Z</time>
      </trkpt>
      <trkpt lat="56.3428213" lon="13.6593377">
        <ele>105.402</ele>
        <time>2014-06-12T16:19:43Z</time>
      </trkpt>
      <trkpt lat="56.3429566" lon="13.6592954">
        <ele>106.363</ele>
        <time>2014-06-12T16:19:50Z</time>
      </trkpt>
      <trkpt lat="56.3430595" lon="13.659146">
        <ele>107.324</ele>
        <time>2014-06-12T16:19:56Z</time>
      </trkpt>
      <trkpt lat="56.3430582" lon="13.6589609">
        <ele>106.844</ele>
        <time>2014-06-12T16:20:00Z</time>
      </trkpt>
      <trkpt lat="56.3430168" lon="13.6583873">
        <ele>106.363</ele>
        <time>2014-06-12T16:20:08Z</time>
      </trkpt>
      <trkpt lat="56.3429717" lon="13.6577494">
        <ele>105.882</ele>
        <time>2014-06-12T16:20:15Z</time>
      </trkpt>
      <trkpt lat="56.3430432" lon="13.6572844">
        <ele>104.921</ele>
        <time>2014-06-12T16:20:20Z</time>
      </trkpt>
      <trkpt lat="56.3432524" lon="13.6567294">
        <ele>105.402</ele>
        <time>2014-06-12T16:20:27Z</time>
      </trkpt>
      <trkpt lat="56.3434607" lon="13.6562339">
        <ele>105.882</ele>
        <time>2014-06-12T16:20:35Z</time>
      </trkpt>
      <trkpt lat="56.3437399" lon="13.655784">
        <ele>104.921</ele>
        <time>2014-06-12T16:20:42Z</time>
      </trkpt>
      <trkpt lat="56.3440191" lon="13.6554029">
        <ele>103.96</ele>
        <time>2014-06-12T16:20:48Z</time>
      </trkpt>
      <trkpt lat="56.3441098" lon="13.6552764">
        <ele>103.96</ele>
        <time>2014-06-12T16:20:50Z</time>
      </trkpt>
      <trkpt lat="56.3441937" lon="13.655147">
        <ele>103.96</ele>
        <time>2014-06-12T16:20:52Z</time>
      </trkpt>
      <trkpt lat="56.3443263" lon="13.6547279">
        <ele>104.44</ele>
        <time>2014-06-12T16:20:57Z</time>
      </trkpt>
      <trkpt lat="56.3442848" lon="13.6543382">
        <ele>104.921</ele>
        <time>2014-06-12T16:21:01Z</time>
      </trkpt>
      <trkpt lat="56.3441724" lon="13.6538115">
        <ele>106.363</ele>
        <time>2014-06-12T16:21:07Z</time>
      </trkpt>
      <trkpt lat="56.3441373" lon="13.6535511">
        <ele>107.324</ele>
        <time>2014-06-12T16:21:10Z</time>
      </trkpt>
      <trkpt lat="56.3441511" lon="13.6531997">
        <ele>107.805</ele>
        <time>2014-06-12T16:21:14Z</time>
      </trkpt>
      <trkpt lat="56.3442387" lon="13.6527937">
        <ele>106.844</ele>
        <time>2014-06-12T16:21:19Z</time>
      </trkpt>
      <trkpt lat="56.3443485" lon="13.6522053">
        <ele>104.921</ele>
        <time>2014-06-12T16:21:26Z</time>
      </trkpt>
      <trkpt lat="56.3443862" lon="13.651814">
        <ele>105.882</ele>
        <time>2014-06-12T16:21:31Z</time>
      </trkpt>
      <trkpt lat="56.3444374" lon="13.6517184">
        <ele>105.882</ele>
        <time>2014-06-12T16:21:33Z</time>
      </trkpt>
      <trkpt lat="56.3446599" lon="13.6514478">
        <ele>108.286</ele>
        <time>2014-06-12T16:21:41Z</time>
      </trkpt>
      <trkpt lat="56.3448111" lon="13.6512722">
        <ele>109.728</ele>
        <time>2014-06-12T16:21:49Z</time>
      </trkpt>
      <trkpt lat="56.3449528" lon="13.6511079">
        <ele>111.17</ele>
        <time>2014-06-12T16:21:57Z</time>
      </trkpt>
      <trkpt lat="56.3451091" lon="13.6509313">
        <ele>111.65</ele>
        <time>2014-06-12T16:22:04Z</time>
      </trkpt>
      <trkpt lat="56.3453394" lon="13.6506713">
        <ele>112.131</ele>
        <time>2014-06-12T16:22:12Z</time>
      </trkpt>
      <trkpt lat="56.3455597" lon="13.6504052">
        <ele>112.131</ele>
        <time>2014-06-12T16:22:19Z</time>
      </trkpt>
      <trkpt lat="56.3458566" lon="13.6500669">
        <ele>112.131</ele>
        <time>2014-06-12T16:22:27Z</time>
      </trkpt>
      <trkpt lat="56.3461972" lon="13.6496889">
        <ele>113.092</ele>
        <time>2014-06-12T16:22:36Z</time>
      </trkpt>
      <trkpt lat="56.3463641" lon="13.6495122">
        <ele>112.612</ele>
        <time>2014-06-12T16:22:41Z</time>
      </trkpt>
      <trkpt lat="56.3465732" lon="13.6492644">
        <ele>112.131</ele>
        <time>2014-06-12T16:22:48Z</time>
      </trkpt>
      <trkpt lat="56.3467995" lon="13.6489988">
        <ele>112.131</ele>
        <time>2014-06-12T16:22:55Z</time>
      </trkpt>
      <trkpt lat="56.3470753" lon="13.6486993">
        <ele>111.17</ele>
        <time>2014-06-12T16:23:03Z</time>
      </trkpt>
      <trkpt lat="56.3472994" lon="13.6484498">
        <ele>110.689</ele>
        <time>2014-06-12T16:23:10Z</time>
      </trkpt>
      <trkpt lat="56.3475424" lon="13.6481718">
        <ele>110.208</ele>
        <time>2014-06-12T16:23:17Z</time>
      </trkpt>
      <trkpt lat="56.3478498" lon="13.6478061">
        <ele>110.208</ele>
        <time>2014-06-12T16:23:25Z</time>
      </trkpt>
      <trkpt lat="56.3481008" lon="13.6475225">
        <ele>112.131</ele>
        <time>2014-06-12T16:23:32Z</time>
      </trkpt>
      <trkpt lat="56.3483227" lon="13.6472519">
        <ele>111.65</ele>
        <time>2014-06-12T16:23:38Z</time>
      </trkpt>
      <trkpt lat="56.3485903" lon="13.6469396">
        <ele>111.17</ele>
        <time>2014-06-12T16:23:45Z</time>
      </trkpt>
      <trkpt lat="56.3487858" lon="13.6467049">
        <ele>110.689</ele>
        <time>2014-06-12T16:23:50Z</time>
      </trkpt>
      <trkpt lat="56.3488638" lon="13.6464662">
        <ele>110.689</ele>
        <time>2014-06-12T16:23:54Z</time>
      </trkpt>
      <trkpt lat="56.3488096" lon="13.6463497">
        <ele>111.17</ele>
        <time>2014-06-12T16:23:57Z</time>
      </trkpt>
    </trkseg>
  </trk>
</gpx>